Time;durP1;ratioP1;P1;durP2;ratioP2;P2;SDS_P1;SDS_P2;PMS_P1;PMS_P2;Temp;Humidity;BMP_temperature;BMP_pressure;BME280_temperature;BME280_humidity;BME280_pressure;Samples;Min_cycle;Max_cycle;Signal;HPM_P1;HPM_P2
2021/08/08 00:01:36;;;;;;;3.23;2.93;;;21.00;99.90;;;;;;4985718;28;20446;-78
2021/08/08 00:04:04;;;;;;;5.13;4.50;;;20.80;99.90;;;;;;4990543;28;20443;-75
2021/08/08 00:06:42;;;;;;;3.17;2.83;;;20.40;99.90;;;;;;4988966;28;20502;-76
2021/08/08 00:09:09;;;;;;;3.00;2.73;;;20.10;99.90;;;;;;5024593;28;20423;-76
2021/08/08 00:11:37;;;;;;;3.53;2.10;;;19.80;99.90;;;;;;5019214;28;20410;-77
2021/08/08 00:14:05;;;;;;;2.80;2.60;;;19.40;99.90;;;;;;4986843;28;20427;-76
2021/08/08 00:16:32;;;;;;;4.73;3.33;;;18.90;99.90;;;;;;4988392;28;20417;-74
2021/08/08 00:18:59;;;;;;;3.17;2.90;;;18.50;99.90;;;;;;4994885;28;20528;-81
2021/08/08 00:21:26;;;;;;;3.50;3.20;;;18.10;99.90;;;;;;4996986;28;20535;-78
2021/08/08 00:23:54;;;;;;;4.83;3.07;;;17.90;99.90;;;;;;4992650;28;20436;-75
2021/08/08 00:26:21;;;;;;;6.47;3.60;;;17.80;99.90;;;;;;4989954;28;20483;-76
2021/08/08 00:28:49;;;;;;;3.70;2.93;;;17.60;99.90;;;;;;4992976;28;20929;-79
2021/08/08 00:31:22;;;;;;;3.43;3.13;;;17.60;99.90;;;;;;4977805;28;20422;-76
2021/08/08 00:33:50;;;;;;;3.30;2.50;;;17.50;99.90;;;;;;4991029;28;20642;-75
2021/08/08 00:36:19;;;;;;;3.70;3.30;;;17.40;99.90;;;;;;4982812;28;20436;-77
2021/08/08 00:38:46;;;;;;;3.73;2.70;;;17.40;99.90;;;;;;4991651;28;20436;-75
2021/08/08 00:41:13;;;;;;;3.40;3.10;;;17.30;99.90;;;;;;4985201;28;20456;-76
2021/08/08 00:43:41;;;;;;;2.83;2.53;;;17.30;99.90;;;;;;5011741;28;20442;-73
2021/08/08 00:46:08;;;;;;;3.60;2.97;;;17.30;99.90;;;;;;4996798;28;20465;-76
2021/08/08 00:48:35;;;;;;;4.23;2.50;;;17.30;99.90;;;;;;4984535;28;20749;-76
2021/08/08 00:51:03;;;;;;;3.03;2.73;;;17.30;99.90;;;;;;4990690;28;20761;-78
2021/08/08 00:53:30;;;;;;;3.00;2.70;;;17.30;99.90;;;;;;4987538;28;20439;-77
2021/08/08 00:55:57;;;;;;;4.00;3.03;;;17.30;99.90;;;;;;4983030;28;20756;-82
2021/08/08 00:58:27;;;;;;;3.90;3.23;;;17.30;99.90;;;;;;5000509;28;20654;-79
2021/08/08 01:01:01;;;;;;;4.20;2.80;;;17.30;99.90;;;;;;5000290;28;20473;-77
2021/08/08 01:03:29;;;;;;;3.53;2.93;;;17.30;99.90;;;;;;4988690;28;20765;-77
2021/08/08 01:06:15;;;;;;;4.97;2.90;;;17.20;99.90;;;;;;5011717;28;20448;-80
2021/08/08 01:08:49;;;;;;;4.83;3.20;;;17.30;99.90;;;;;;5000891;28;20777;-85
2021/08/08 01:11:17;;;;;;;3.33;2.70;;;17.30;99.90;;;;;;4999491;28;20449;-83
2021/08/08 01:13:47;;;;;;;3.73;3.43;;;17.30;99.90;;;;;;4999609;28;20619;-82
2021/08/08 01:16:16;;;;;;;3.53;3.03;;;17.50;99.90;;;;;;4987001;28;20489;-84
2021/08/08 01:18:44;;;;;;;3.60;3.23;;;17.30;99.90;;;;;;5000497;28;20421;-81
2021/08/08 01:21:12;;;;;;;3.10;2.80;;;17.30;99.90;;;;;;5004151;28;20477;-88
2021/08/08 01:23:40;;;;;;;2.93;2.30;;;17.30;99.90;;;;;;4987459;28;20449;-81
2021/08/08 01:26:08;;;;;;;2.97;2.77;;;17.30;99.90;;;;;;4988492;28;20466;-82
2021/08/08 01:28:36;;;;;;;3.47;2.60;;;17.30;99.90;;;;;;5006973;28;20442;-81
2021/08/08 01:31:03;;;;;;;2.57;2.37;;;17.30;99.90;;;;;;5014878;28;20485;-81
2021/08/08 01:33:30;;;;;;;4.23;3.17;;;17.30;99.90;;;;;;4998197;28;20563;-81
2021/08/08 01:35:57;;;;;;;2.93;2.70;;;17.20;99.90;;;;;;5000377;28;20439;-80
2021/08/08 01:38:28;;;;;;;3.87;2.90;;;17.30;99.90;;;;;;4999150;28;20503;-84
2021/08/08 01:41:02;;;;;;;3.70;3.40;;;17.30;99.90;;;;;;4989817;28;20570;-84
2021/08/08 01:43:32;;;;;;;3.93;3.43;;;17.30;99.90;;;;;;5000112;28;20419;-84
2021/08/08 01:46:06;;;;;;;3.33;3.03;;;17.30;99.90;;;;;;5031494;28;20438;-85
2021/08/08 01:48:37;;;;;;;5.37;3.10;;;17.20;99.90;;;;;;4985069;28;20441;-82
2021/08/08 01:51:04;;;;;;;3.33;3.00;;;17.20;99.90;;;;;;4991420;28;20423;-78
2021/08/08 01:53:32;;;;;;;2.60;2.03;;;17.20;99.90;;;;;;4994981;28;20415;-76
2021/08/08 01:55:59;;;;;;;2.33;2.13;;;17.20;99.90;;;;;;4987288;28;20475;-82
2021/08/08 01:58:29;;;;;;;2.60;2.40;;;17.20;99.90;;;;;;5004409;28;20419;-81
2021/08/08 02:00:57;;;;;;;1.93;1.83;;;17.10;99.90;;;;;;5000613;28;20412;-78
2021/08/08 02:03:39;;;;;;;2.73;2.50;;;17.10;99.90;;;;;;4999084;28;20413;-78
2021/08/08 02:06:08;;;;;;;2.60;2.40;;;17.20;99.90;;;;;;4993548;28;20759;-79
2021/08/08 02:08:35;;;;;;;3.13;2.30;;;17.20;99.90;;;;;;4979585;28;20442;-80
2021/08/08 02:11:04;;;;;;;2.83;2.23;;;17.30;99.90;;;;;;4992975;28;20470;-78
2021/08/08 02:13:31;;;;;;;3.40;2.33;;;17.40;99.90;;;;;;4989995;28;20468;-78
2021/08/08 02:15:58;;;;;;;2.60;1.90;;;17.30;99.90;;;;;;4982723;28;20422;-79
2021/08/08 02:18:25;;;;;;;3.47;1.90;;;17.40;99.90;;;;;;4981656;28;20444;-80
2021/08/08 02:20:52;;;;;;;3.83;2.33;;;17.30;99.90;;;;;;4994452;28;20464;-79
2021/08/08 02:23:20;;;;;;;1.80;1.70;;;17.20;99.90;;;;;;4984468;28;20477;-79
2021/08/08 02:25:50;;;;;;;4.97;2.10;;;17.20;99.90;;;;;;4989863;28;20483;-83
2021/08/08 02:28:18;;;;;;;2.73;2.00;;;17.10;99.90;;;;;;4994148;28;20561;-83
2021/08/08 02:30:46;;;;;;;2.40;2.20;;;17.10;99.90;;;;;;5009939;28;20421;-82
2021/08/08 02:33:13;;;;;;;2.90;2.70;;;17.10;99.90;;;;;;5004429;28;20440;-82
2021/08/08 02:35:40;;;;;;;2.53;2.10;;;17.10;99.90;;;;;;5013714;28;20461;-85
2021/08/08 02:38:08;;;;;;;2.40;2.20;;;17.20;99.90;;;;;;4998222;28;20465;-84
2021/08/08 02:40:35;;;;;;;3.00;2.63;;;17.30;99.90;;;;;;4997662;28;20578;-82
2021/08/08 02:43:02;;;;;;;3.17;2.87;;;17.30;99.90;;;;;;4998192;28;20514;-83
2021/08/08 02:45:29;;;;;;;2.00;1.80;;;17.30;99.90;;;;;;4997577;28;20465;-83
2021/08/08 02:47:57;;;;;;;2.97;2.67;;;17.30;99.90;;;;;;4998269;28;20731;-79
2021/08/08 02:50:24;;;;;;;2.77;2.57;;;17.40;99.90;;;;;;4999018;28;20529;-85
2021/08/08 02:52:53;;;;;;;3.50;3.00;;;18.10;99.90;;;;;;5003200;28;20757;-85
2021/08/08 02:55:20;;;;;;;2.60;2.23;;;17.80;99.90;;;;;;4998039;28;20520;-85
2021/08/08 02:57:48;;;;;;;2.80;2.40;;;17.80;99.90;;;;;;4997274;28;20426;-80
2021/08/08 03:00:15;;;;;;;3.40;2.70;;;17.90;99.90;;;;;;4996926;28;20421;-81
2021/08/08 03:02:42;;;;;;;3.67;3.07;;;17.90;99.90;;;;;;4995660;28;20695;-84
2021/08/08 03:05:10;;;;;;;3.43;2.90;;;17.70;99.90;;;;;;4997918;28;20923;-84
2021/08/08 03:07:37;;;;;;;2.47;2.27;;;17.80;99.90;;;;;;5016679;28;20744;-84
2021/08/08 03:10:06;;;;;;;4.47;3.63;;;17.80;99.90;;;;;;4982903;28;20766;-82
2021/08/08 03:12:33;;;;;;;2.93;2.67;;;17.90;99.90;;;;;;5011786;28;20427;-82
2021/08/08 03:15:00;;;;;;;3.40;2.60;;;17.80;99.90;;;;;;5036134;28;20426;-83
2021/08/08 03:17:27;;;;;;;3.30;3.00;;;17.90;99.90;;;;;;5005584;28;20444;-83
2021/08/08 03:19:54;;;;;;;3.30;3.00;;;17.80;99.90;;;;;;4997914;28;20861;-84
2021/08/08 03:22:21;;;;;;;4.03;2.93;;;17.80;99.90;;;;;;4997475;28;20688;-86
2021/08/08 03:24:49;;;;;;;5.43;2.90;;;17.80;99.90;;;;;;4983340;28;20850;-84
2021/08/08 03:27:16;;;;;;;3.80;3.20;;;17.70;99.90;;;;;;5031291;28;20505;-85
2021/08/08 03:29:43;;;;;;;7.57;2.93;;;17.70;99.90;;;;;;5006102;28;20436;-86
2021/08/08 03:32:10;;;;;;;3.50;2.73;;;17.60;99.90;;;;;;4998555;28;20420;-84
2021/08/08 03:34:38;;;;;;;4.00;3.20;;;17.60;99.90;;;;;;4997483;28;20445;-86
2021/08/08 03:37:05;;;;;;;2.50;2.30;;;17.60;99.90;;;;;;4997101;28;20788;-87
2021/08/08 03:39:32;;;;;;;4.63;2.93;;;17.70;99.90;;;;;;4997167;28;20531;-85
2021/08/08 03:41:59;;;;;;;2.67;2.10;;;17.70;99.90;;;;;;4999078;28;20471;-84
2021/08/08 03:44:26;;;;;;;3.17;2.80;;;17.80;99.90;;;;;;4997589;28;20443;-84
2021/08/08 03:46:54;;;;;;;3.47;3.03;;;17.80;99.90;;;;;;4997355;28;20450;-83
2021/08/08 03:49:21;;;;;;;2.93;2.63;;;17.80;99.90;;;;;;4996740;28;20443;-84
2021/08/08 03:51:48;;;;;;;7.00;2.70;;;17.70;99.90;;;;;;4998214;28;20441;-84
2021/08/08 03:54:15;;;;;;;2.57;2.33;;;17.60;99.90;;;;;;4998397;28;20510;-85
2021/08/08 03:56:42;;;;;;;4.10;2.90;;;17.70;99.90;;;;;;4998467;28;20522;-83
2021/08/08 03:59:10;;;;;;;3.23;2.30;;;17.90;99.90;;;;;;4996654;28;20778;-84
2021/08/08 04:01:37;;;;;;;2.83;2.63;;;18.10;99.90;;;;;;4997054;28;20456;-85
2021/08/08 04:04:04;;;;;;;3.97;2.70;;;18.20;99.90;;;;;;5010656;28;20465;-84
2021/08/08 04:06:31;;;;;;;2.60;2.40;;;18.30;99.90;;;;;;5040060;28;20442;-82
2021/08/08 04:08:58;;;;;;;3.23;2.30;;;18.40;99.90;;;;;;4997558;28;20421;-81
2021/08/08 04:11:26;;;;;;;2.70;2.50;;;18.50;99.90;;;;;;5048750;28;20441;-81
2021/08/08 04:13:53;;;;;;;3.97;2.83;;;18.70;99.90;;;;;;5048864;28;20419;-81
2021/08/08 04:16:20;;;;;;;2.17;1.97;;;18.80;99.90;;;;;;5028680;28;20443;-81
2021/08/08 04:18:48;;;;;;;3.00;2.10;;;18.90;99.90;;;;;;4998039;28;20463;-79
2021/08/08 04:21:15;;;;;;;3.60;2.23;;;18.70;99.90;;;;;;5024730;28;20411;-78
2021/08/08 04:23:42;;;;;;;4.20;2.77;;;18.50;99.90;;;;;;4984534;28;20486;-80
2021/08/08 04:26:09;;;;;;;3.13;2.13;;;18.50;99.90;;;;;;5012566;28;20448;-79
2021/08/08 04:28:39;;;;;;;4.30;2.30;;;18.50;99.90;;;;;;4989975;28;20417;-78
2021/08/08 04:31:08;;;;;;;2.67;2.47;;;18.50;99.90;;;;;;4999993;28;20631;-81
2021/08/08 04:33:37;;;;;;;1.50;1.40;;;18.50;99.90;;;;;;4988518;28;20424;-80
2021/08/08 04:36:04;;;;;;;1.90;1.80;;;18.60;99.90;;;;;;5000823;28;20482;-80
2021/08/08 04:38:32;;;;;;;2.23;1.90;;;18.70;99.90;;;;;;4998603;28;20669;-77
2021/08/08 04:40:59;;;;;;;6.03;2.50;;;18.60;99.90;;;;;;5000415;28;20650;-76
2021/08/08 04:43:26;;;;;;;2.47;2.27;;;18.70;99.90;;;;;;4999474;28;20528;-77
2021/08/08 04:45:53;;;;;;;7.27;2.70;;;18.70;99.90;;;;;;5001771;28;20410;-77
2021/08/08 04:48:20;;;;;;;2.13;1.90;;;18.60;99.90;;;;;;5001345;28;20439;-77
2021/08/08 04:50:47;;;;;;;2.10;1.33;;;18.40;99.90;;;;;;5001624;28;20464;-79
2021/08/08 04:53:18;;;;;;;3.47;2.00;;;18.50;99.90;;;;;;5000215;28;20492;-80
2021/08/08 04:55:46;;;;;;;1.93;1.53;;;18.60;99.90;;;;;;5002254;28;20760;-78
2021/08/08 04:58:13;;;;;;;8.37;2.20;;;18.50;99.90;;;;;;4999739;28;20464;-78
2021/08/08 05:00:43;;;;;;;2.40;1.97;;;18.50;99.90;;;;;;5000924;28;20513;-79
2021/08/08 05:03:11;;;;;;;1.80;1.60;;;18.90;99.90;;;;;;4997101;28;20548;-79
2021/08/08 05:05:38;;;;;;;2.83;2.27;;;18.40;99.90;;;;;;4996263;28;20470;-78
2021/08/08 05:08:06;;;;;;;2.23;2.03;;;18.50;99.90;;;;;;4992283;28;20444;-78
2021/08/08 05:10:33;;;;;;;1.80;1.70;;;18.60;99.90;;;;;;4996565;28;20706;-77
2021/08/08 05:13:00;;;;;;;2.53;2.03;;;18.70;99.90;;;;;;4987778;28;20509;-78
2021/08/08 05:15:28;;;;;;;2.37;2.17;;;18.90;99.90;;;;;;5015671;28;20417;-79
2021/08/08 05:17:55;;;;;;;6.80;2.20;;;19.30;99.90;;;;;;5010533;28;20414;-79
2021/08/08 05:20:22;;;;;;;2.93;2.40;;;19.80;99.90;;;;;;4981092;28;20438;-77
2021/08/08 05:22:49;;;;;;;5.43;2.43;;;20.10;99.90;;;;;;4981164;28;20454;-78
2021/08/08 05:25:16;;;;;;;3.33;2.13;;;19.90;99.90;;;;;;4980758;28;20657;-78
2021/08/08 05:27:43;;;;;;;2.20;2.00;;;20.30;99.90;;;;;;4991999;28;20729;-76
2021/08/08 05:30:11;;;;;;;3.37;1.93;;;20.10;99.90;;;;;;4986645;28;20435;-76
2021/08/08 05:32:38;;;;;;;1.63;1.53;;;19.90;99.90;;;;;;5000734;28;20445;-77
2021/08/08 05:35:07;;;;;;;3.77;1.87;;;20.10;99.90;;;;;;4999711;28;20414;-76
2021/08/08 05:37:34;;;;;;;2.60;1.77;;;20.00;99.90;;;;;;5014085;28;20480;-78
2021/08/08 05:40:07;;;;;;;2.00;1.70;;;20.00;99.90;;;;;;5015038;28;20524;-78
2021/08/08 05:42:34;;;;;;;1.63;1.53;;;20.10;99.90;;;;;;4997056;28;20593;-77
2021/08/08 05:45:02;;;;;;;1.57;1.47;;;20.10;99.90;;;;;;4999690;28;20462;-76
2021/08/08 05:47:29;;;;;;;2.07;1.87;;;20.10;99.90;;;;;;4998739;28;20526;-76
2021/08/08 05:49:57;;;;;;;2.20;2.10;;;20.10;99.90;;;;;;5000267;28;20465;-76
2021/08/08 05:52:24;;;;;;;1.90;1.70;;;20.10;99.90;;;;;;4998604;28;20418;-75
2021/08/08 05:54:51;;;;;;;2.17;2.00;;;20.20;99.90;;;;;;5001849;28;20546;-77
2021/08/08 05:57:18;;;;;;;2.20;1.63;;;20.20;99.90;;;;;;4999665;28;20432;-75
2021/08/08 05:59:45;;;;;;;2.03;1.73;;;19.90;99.90;;;;;;4996973;28;20711;-74
2021/08/08 06:02:12;;;;;;;2.27;1.80;;;20.00;99.90;;;;;;5000717;28;20490;-76
2021/08/08 06:04:39;;;;;;;1.57;1.47;;;20.00;99.90;;;;;;4999958;28;20450;-77
2021/08/08 06:07:07;;;;;;;1.67;1.57;;;19.80;99.90;;;;;;4997865;28;20492;-77
2021/08/08 06:09:34;;;;;;;2.23;2.10;;;19.70;99.90;;;;;;5010112;28;20410;-76
2021/08/08 06:12:01;;;;;;;3.23;2.80;;;19.70;99.90;;;;;;5010569;28;20733;-77
2021/08/08 06:14:28;;;;;;;4.07;3.77;;;19.80;99.90;;;;;;5008444;28;20436;-77
2021/08/08 06:16:55;;;;;;;2.13;2.03;;;19.80;99.90;;;;;;5002021;28;20443;-75
2021/08/08 06:19:22;;;;;;;4.07;2.43;;;19.80;99.90;;;;;;5003127;28;20436;-74
2021/08/08 06:21:49;;;;;;;1.80;1.70;;;19.80;99.90;;;;;;4997337;28;20594;-74
2021/08/08 06:24:16;;;;;;;2.37;2.17;;;20.00;99.90;;;;;;4990417;28;20543;-76
2021/08/08 06:26:43;;;;;;;2.10;1.93;;;20.10;99.90;;;;;;4995849;28;20621;-75
2021/08/08 06:29:10;;;;;;;4.93;2.17;;;20.00;99.90;;;;;;4996099;28;20439;-74
2021/08/08 06:31:37;;;;;;;2.70;1.77;;;19.90;99.90;;;;;;5013289;28;20414;-75
2021/08/08 06:34:04;;;;;;;1.83;1.70;;;20.10;99.90;;;;;;4999325;28;20434;-75
2021/08/08 06:36:31;;;;;;;1.70;1.60;;;20.30;99.90;;;;;;5001202;28;20505;-75
2021/08/08 06:39:03;;;;;;;5.53;2.33;;;20.60;99.90;;;;;;4998943;28;20977;-75
2021/08/08 06:41:31;;;;;;;1.83;1.73;;;20.90;99.90;;;;;;4998213;28;20490;-77
2021/08/08 06:43:59;;;;;;;4.20;3.60;;;21.20;99.90;;;;;;4998619;28;20474;-75
2021/08/08 06:46:26;;;;;;;2.67;2.53;;;21.70;99.90;;;;;;5000332;28;20452;-75
2021/08/08 06:48:53;;;;;;;2.73;1.73;;;22.40;99.90;;;;;;5000015;28;20408;-74
2021/08/08 06:51:20;;;;;;;4.93;2.47;;;22.80;99.90;;;;;;4998800;28;20458;-74
2021/08/08 06:53:47;;;;;;;2.53;2.40;;;22.90;99.90;;;;;;4985145;28;20423;-74
2021/08/08 06:56:14;;;;;;;2.60;2.40;;;22.50;99.90;;;;;;5004899;28;20742;-74
2021/08/08 06:58:41;;;;;;;3.47;2.70;;;22.20;99.90;;;;;;5012575;28;20515;-75
2021/08/08 07:01:08;;;;;;;2.47;2.27;;;22.40;99.90;;;;;;4984002;28;20437;-74
2021/08/08 07:03:36;;;;;;;2.03;1.93;;;22.50;99.90;;;;;;4980955;28;20783;-74
2021/08/08 07:06:03;;;;;;;2.47;2.27;;;22.70;99.90;;;;;;4982380;28;20497;-74
2021/08/08 07:08:30;;;;;;;2.00;1.90;;;22.80;99.90;;;;;;4980432;28;20469;-73
2021/08/08 07:10:57;;;;;;;2.10;1.77;;;22.70;99.90;;;;;;4984556;28;20603;-73
2021/08/08 07:13:24;;;;;;;2.20;2.00;;;22.40;99.90;;;;;;4980506;28;20514;-74
2021/08/08 07:15:51;;;;;;;2.37;2.17;;;22.40;99.90;;;;;;4980446;28;20442;-74
2021/08/08 07:18:18;;;;;;;3.90;2.10;;;22.80;99.90;;;;;;4981572;28;20413;-75
2021/08/08 07:20:45;;;;;;;2.83;2.53;;;23.60;99.90;;;;;;4981117;28;20440;-74
2021/08/08 07:23:12;;;;;;;2.73;1.87;;;24.50;99.90;;;;;;4979414;28;20799;-74
2021/08/08 07:25:40;;;;;;;2.53;2.23;;;24.80;99.90;;;;;;4978329;28;20540;-74
2021/08/08 07:28:07;;;;;;;2.43;2.20;;;24.80;99.90;;;;;;4984294;28;20658;-73
2021/08/08 07:30:36;;;;;;;2.87;2.67;;;24.60;99.90;;;;;;4978417;28;20447;-74
2021/08/08 07:33:03;;;;;;;2.50;2.40;;;24.40;99.90;;;;;;4993190;28;20435;-73
2021/08/08 07:35:30;;;;;;;2.40;2.30;;;24.00;99.90;;;;;;4989157;28;20440;-75
2021/08/08 07:37:57;;;;;;;2.60;2.40;;;23.40;99.90;;;;;;4996616;28;20456;-73
2021/08/08 07:40:25;;;;;;;5.50;3.93;;;23.30;99.90;;;;;;4994194;28;20407;-75
2021/08/08 07:42:55;;;;;;;4.80;2.77;;;22.80;99.90;;;;;;4996082;28;20459;-74
2021/08/08 07:45:22;;;;;;;2.60;2.40;;;22.50;99.90;;;;;;4993652;28;20440;-75
2021/08/08 07:47:49;;;;;;;2.20;2.10;;;22.60;99.90;;;;;;4987196;28;20482;-75
2021/08/08 07:50:16;;;;;;;2.20;2.10;;;23.00;99.90;;;;;;4983756;28;20615;-75
2021/08/08 07:52:43;;;;;;;2.27;2.17;;;23.50;99.90;;;;;;4978424;28;20419;-74
2021/08/08 07:55:11;;;;;;;5.17;2.40;;;23.90;99.90;;;;;;4979543;28;20772;-74
2021/08/08 07:57:38;;;;;;;2.43;2.33;;;23.90;99.90;;;;;;5000167;28;20668;-74
2021/08/08 08:00:06;;;;;;;2.63;2.43;;;23.70;99.90;;;;;;4991539;28;20455;-73
2021/08/08 08:02:34;;;;;;;2.87;2.67;;;23.80;99.90;;;;;;4994543;28;20410;-76
2021/08/08 08:05:01;;;;;;;2.67;2.57;;;25.30;99.90;;;;;;4996393;28;20823;-74
2021/08/08 08:07:28;;;;;;;3.00;2.80;;;27.10;99.90;;;;;;4993844;28;20453;-74
2021/08/08 08:09:55;;;;;;;4.83;3.30;;;28.30;99.90;;;;;;4996794;28;20736;-74
2021/08/08 08:12:22;;;;;;;3.77;3.57;;;29.10;99.90;;;;;;4996365;28;20782;-76
2021/08/08 08:14:50;;;;;;;7.00;4.57;;;31.30;96.70;;;;;;4989476;28;20543;-76
2021/08/08 08:17:17;;;;;;;5.53;5.20;;;33.20;91.30;;;;;;4997791;28;20451;-74
2021/08/08 08:19:45;;;;;;;6.13;5.83;;;34.70;86.90;;;;;;5004089;28;20768;-74
2021/08/08 08:22:16;;;;;;;6.77;6.53;;;34.70;82.70;;;;;;4983465;28;20447;-73
2021/08/08 08:24:44;;;;;;;6.30;6.10;;;33.70;83.20;;;;;;4991676;28;20480;-73
2021/08/08 08:27:12;;;;;;;6.60;6.20;;;32.50;86.70;;;;;;5000474;28;20442;-74
2021/08/08 08:29:39;;;;;;;6.40;6.20;;;32.10;88.20;;;;;;4991253;28;20466;-73
2021/08/08 08:32:06;;;;;;;7.57;6.97;;;32.50;86.30;;;;;;4981426;28;20442;-73
2021/08/08 08:34:34;;;;;;;6.30;6.10;;;32.10;86.50;;;;;;4980594;28;20443;-73
2021/08/08 08:37:01;;;;;;;7.10;6.80;;;32.90;83.40;;;;;;4981800;28;20436;-75
2021/08/08 08:39:29;;;;;;;8.17;7.80;;;34.90;78.90;;;;;;4978167;28;20443;-78
2021/08/08 08:41:59;;;;;;;8.40;8.10;;;36.10;73.10;;;;;;4996353;28;20508;-73
2021/08/08 08:44:26;;;;;;;8.57;8.27;;;36.20;73.30;;;;;;4981613;28;20479;-73
2021/08/08 08:46:56;;;;;;;8.57;8.27;;;36.90;70.40;;;;;;4984785;28;20640;-76
2021/08/08 08:49:26;;;;;;;8.97;8.67;;;37.10;67.40;;;;;;4985138;28;20446;-76
2021/08/08 08:51:59;;;;;;;8.33;8.03;;;36.90;67.30;;;;;;4982542;28;20436;-73
2021/08/08 08:54:29;;;;;;;8.63;8.33;;;37.00;64.50;;;;;;4991760;28;20771;-77
2021/08/08 08:56:58;;;;;;;8.10;7.90;;;36.60;64.80;;;;;;4996154;28;20440;-73
2021/08/08 08:59:27;;;;;;;7.97;7.67;;;34.10;69.80;;;;;;5003397;28;20437;-77
2021/08/08 09:01:54;;;;;;;7.83;7.53;;;32.30;73.60;;;;;;4990213;28;20778;-73
2021/08/08 09:04:21;;;;;;;7.90;7.60;;;32.10;75.90;;;;;;5000891;28;20799;-74
2021/08/08 09:06:49;;;;;;;7.90;7.60;;;34.10;72.50;;;;;;5045984;28;20435;-77
2021/08/08 09:09:16;;;;;;;8.50;8.10;;;35.70;67.10;;;;;;5010391;28;20442;-73
2021/08/08 09:11:45;;;;;;;8.10;7.77;;;37.40;62.20;;;;;;5014244;28;20454;-74
2021/08/08 09:14:14;;;;;;;8.90;8.30;;;37.20;61.50;;;;;;5010976;28;20509;-77
2021/08/08 09:16:50;;;;;;;8.33;8.03;;;35.80;63.50;;;;;;5013566;28;20446;-72
2021/08/08 09:19:23;;;;;;;8.53;7.83;;;33.60;68.60;;;;;;5013343;28;20762;-74
2021/08/08 09:21:50;;;;;;;8.27;7.97;;;33.40;68.80;;;;;;4998660;28;20871;-72
2021/08/08 09:24:35;;;;;;;8.40;7.80;;;33.30;70.30;;;;;;4992436;28;20502;-73
2021/08/08 09:27:10;;;;;;;8.80;8.47;;;34.90;64.10;;;;;;4994885;28;20432;-74
2021/08/08 09:29:40;;;;;;;8.47;8.17;;;36.50;60.70;;;;;;4993655;28;20431;-72
2021/08/08 09:32:08;;;;;;;8.50;8.20;;;34.70;62.50;;;;;;4994625;28;20433;-72
2021/08/08 09:34:38;;;;;;;8.30;8.00;;;34.50;62.30;;;;;;4993060;28;20452;-72
2021/08/08 09:37:14;;;;;;;8.10;7.80;;;33.40;65.50;;;;;;5001396;28;20489;-73
2021/08/08 09:39:43;;;;;;;7.43;7.13;;;31.70;71.30;;;;;;4993314;28;20442;-74
2021/08/08 09:42:10;;;;;;;7.23;6.93;;;30.10;74.70;;;;;;5006413;28;20455;-70
2021/08/08 09:44:49;;;;;;;6.30;6.10;;;29.00;80.40;;;;;;5004726;28;20858;-74
2021/08/08 09:47:17;;;;;;;6.23;6.03;;;28.30;82.10;;;;;;5003917;28;20461;-74
2021/08/08 09:50:00;;;;;;;5.97;5.77;;;28.00;84.60;;;;;;4982956;28;20662;-70
2021/08/08 09:52:28;;;;;;;6.20;6.00;;;27.80;84.50;;;;;;5010423;28;20508;-71
2021/08/08 09:54:55;;;;;;;5.90;5.70;;;27.40;85.70;;;;;;4991872;28;20487;-73
2021/08/08 09:57:22;;;;;;;6.00;5.70;;;27.10;87.50;;;;;;5000488;28;20438;-73
2021/08/08 09:59:51;;;;;;;6.03;5.83;;;27.00;86.40;;;;;;5008583;28;20450;-72
2021/08/08 10:02:20;;;;;;;7.17;6.73;;;27.20;86.40;;;;;;5002345;28;20429;-71
2021/08/08 10:04:51;;;;;;;5.83;5.63;;;27.30;86.00;;;;;;5002856;28;20630;-75
2021/08/08 10:07:18;;;;;;;6.70;6.40;;;27.30;84.90;;;;;;5000182;28;20450;-75
2021/08/08 10:09:50;;;;;;;6.83;6.53;;;27.30;86.60;;;;;;5001537;28;20457;-71
2021/08/08 10:12:23;;;;;;;6.20;5.90;;;27.40;88.90;;;;;;4997704;28;20774;-74
2021/08/08 10:14:53;;;;;;;6.00;5.80;;;27.30;86.00;;;;;;4995489;28;20769;-73
2021/08/08 10:17:21;;;;;;;5.97;5.57;;;27.30;87.30;;;;;;4987247;28;20684;-74
2021/08/08 10:19:50;;;;;;;6.30;5.70;;;27.10;87.30;;;;;;4982999;28;20483;-75
2021/08/08 10:22:18;;;;;;;5.70;5.50;;;27.60;88.20;;;;;;4984069;28;20464;-73
2021/08/08 10:24:48;;;;;;;5.83;5.63;;;28.10;85.90;;;;;;4981604;28;20531;-76
2021/08/08 10:27:21;;;;;;;5.70;5.50;;;28.50;85.90;;;;;;4990816;28;20443;-70
2021/08/08 10:29:50;;;;;;;5.90;5.70;;;28.70;84.50;;;;;;4994827;28;20436;-74
2021/08/08 10:32:18;;;;;;;5.77;5.47;;;28.80;82.90;;;;;;4984225;28;20444;-74
2021/08/08 10:34:45;;;;;;;8.83;6.37;;;28.80;83.90;;;;;;4997859;28;20585;-73
2021/08/08 10:37:14;;;;;;;6.20;5.80;;;28.20;82.30;;;;;;4983958;28;20440;-71
2021/08/08 10:39:43;;;;;;;5.90;5.70;;;27.90;84.80;;;;;;4981799;28;20434;-71
2021/08/08 10:42:10;;;;;;;6.10;5.80;;;27.70;84.00;;;;;;4985312;28;20459;-71
2021/08/08 10:44:49;;;;;;;5.93;5.73;;;27.30;84.50;;;;;;4983340;28;20470;-72
2021/08/08 10:47:31;;;;;;;5.60;5.40;;;27.40;84.70;;;;;;4986521;28;20436;-72
2021/08/08 10:50:15;;;;;;;5.90;5.70;;;27.20;82.10;;;;;;4983511;28;20494;-71
2021/08/08 10:52:44;;;;;;;5.80;5.60;;;27.70;80.40;;;;;;5000126;28;20875;-70
2021/08/08 10:55:23;;;;;;;5.97;5.57;;;28.20;79.80;;;;;;5000107;28;20456;-72
2021/08/08 10:57:50;;;;;;;5.63;5.43;;;28.20;80.00;;;;;;5006472;28;20442;-71
2021/08/08 11:00:18;;;;;;;5.50;5.30;;;28.00;77.70;;;;;;5003747;28;20447;-72
2021/08/08 11:02:47;;;;;;;5.67;5.30;;;27.70;78.90;;;;;;5015796;28;20435;-73
2021/08/08 11:05:16;;;;;;;5.50;5.30;;;27.50;80.00;;;;;;5016034;28;20535;-69
2021/08/08 11:07:46;;;;;;;5.50;5.27;;;27.30;79.30;;;;;;5013237;28;20499;-72
2021/08/08 11:10:27;;;;;;;5.70;5.40;;;27.10;81.20;;;;;;5016477;28;20432;-73
2021/08/08 11:12:55;;;;;;;6.17;5.87;;;26.90;81.50;;;;;;5015393;28;20441;-72
2021/08/08 11:15:34;;;;;;;5.73;5.53;;;26.80;79.90;;;;;;5013465;28;20432;-71
2021/08/08 11:18:01;;;;;;;5.60;5.40;;;26.80;77.90;;;;;;4993853;28;20408;-74
2021/08/08 11:20:29;;;;;;;6.20;6.00;;;27.00;77.20;;;;;;5002240;28;20744;-75
2021/08/08 11:22:58;;;;;;;6.07;5.87;;;27.40;78.30;;;;;;5002327;28;20761;-73
2021/08/08 11:25:34;;;;;;;6.03;5.60;;;27.70;77.90;;;;;;4998519;28;20547;-72
2021/08/08 11:28:01;;;;;;;5.80;5.60;;;27.50;75.60;;;;;;4997001;28;20452;-70
2021/08/08 11:30:38;;;;;;;6.37;6.17;;;27.70;77.50;;;;;;4984879;28;20437;-73
2021/08/08 11:33:05;;;;;;;5.97;5.77;;;28.30;75.50;;;;;;4986023;28;20449;-74
2021/08/08 11:35:32;;;;;;;6.20;6.00;;;28.70;75.30;;;;;;5003640;28;20811;-74
2021/08/08 11:37:59;;;;;;;6.47;6.27;;;28.80;75.20;;;;;;5005620;28;20494;-72
2021/08/08 11:40:29;;;;;;;6.47;6.17;;;29.00;72.40;;;;;;5001277;28;20405;-74
2021/08/08 11:43:01;;;;;;;6.53;6.23;;;29.10;75.50;;;;;;5008061;28;20484;-74
2021/08/08 11:45:57;;;;;;;6.50;6.30;;;29.30;73.00;;;;;;4997700;28;20514;-71
2021/08/08 11:48:29;;;;;;;5.90;5.70;;;29.30;71.50;;;;;;4992024;28;20423;-75
2021/08/08 11:51:01;;;;;;;6.27;5.97;;;29.40;72.50;;;;;;5001731;28;20498;-73
2021/08/08 11:53:34;;;;;;;6.10;5.80;;;29.50;71.90;;;;;;5012008;28;20462;-75
2021/08/08 11:56:14;;;;;;;6.43;6.23;;;29.70;71.00;;;;;;4993483;28;20467;-73
2021/08/08 11:58:49;;;;;;;6.00;5.80;;;29.20;71.70;;;;;;5011458;28;20569;-72
2021/08/08 12:01:22;;;;;;;6.17;5.87;;;28.70;72.00;;;;;;5008217;28;20807;-73
2021/08/08 12:03:51;;;;;;;6.40;6.20;;;28.50;72.90;;;;;;5041874;28;20478;-74
2021/08/08 12:06:23;;;;;;;6.00;5.80;;;28.70;72.50;;;;;;4997154;28;20959;-69
2021/08/08 12:08:52;;;;;;;6.80;6.20;;;28.70;73.60;;;;;;4982668;28;20448;-71
2021/08/08 12:11:22;;;;;;;6.03;5.83;;;28.50;72.90;;;;;;4999120;28;20417;-71
2021/08/08 12:14:06;;;;;;;5.87;5.67;;;28.20;73.30;;;;;;5000064;28;20460;-71
2021/08/08 12:16:35;;;;;;;6.00;5.80;;;28.40;76.80;;;;;;4999454;28;20422;-71
2021/08/08 12:19:05;;;;;;;6.70;5.70;;;28.60;74.90;;;;;;5032843;28;20458;-70
2021/08/08 12:21:37;;;;;;;5.63;5.43;;;28.80;72.10;;;;;;5001076;28;20515;-71
2021/08/08 12:24:13;;;;;;;5.60;5.40;;;28.90;74.40;;;;;;4998763;28;20538;-74
2021/08/08 12:26:49;;;;;;;6.10;5.90;;;29.10;71.60;;;;;;4997398;28;22290;-73
2021/08/08 12:29:16;;;;;;;6.00;5.80;;;29.30;72.00;;;;;;4998489;28;20898;-71
2021/08/08 12:31:43;;;;;;;5.70;5.50;;;29.30;72.70;;;;;;4998283;28;20662;-71
2021/08/08 12:34:10;;;;;;;6.10;5.80;;;29.50;72.10;;;;;;5013617;28;20450;-73
2021/08/08 12:36:42;;;;;;;5.83;5.63;;;29.50;71.00;;;;;;4995621;28;20440;-70
2021/08/08 12:39:10;;;;;;;6.87;6.57;;;29.70;71.70;;;;;;4992458;28;20435;-75
2021/08/08 12:41:42;;;;;;;6.20;6.00;;;29.90;70.20;;;;;;4997010;28;20443;-71
2021/08/08 12:44:10;;;;;;;6.17;5.97;;;29.70;71.40;;;;;;5030583;28;20593;-70
2021/08/08 12:46:41;;;;;;;6.63;6.43;;;29.60;71.30;;;;;;4997908;28;20443;-71
2021/08/08 12:49:10;;;;;;;6.50;6.20;;;29.00;72.90;;;;;;4991380;28;20436;-71
2021/08/08 12:51:39;;;;;;;6.87;6.63;;;28.80;74.30;;;;;;4986420;28;20440;-71
2021/08/08 12:54:07;;;;;;;6.00;5.80;;;29.00;73.80;;;;;;5019377;28;20450;-71
2021/08/08 12:56:35;;;;;;;9.13;8.63;;;29.10;74.20;;;;;;4998469;28;20813;-70